KFFA/FFA METAR and TAF weather

Enter ICAO airport designator
Station Type Date Time Source
KFFA METAR 2019/08/24 23:00 UTC NOAA

KFFA 242300Z AUTO 01003KT 10SM OVC050 22/19 A3006 RMK AO2 T02210192


Station Type Date Time Source
KFFA Decoded METAR 2019/08/24 23:00 UTC NOAA

Station name not available
Aug 24, 2019 - 07:00 PM EDT / 2019.08.24 2300 UTC
Wind: from the N (010 degrees) at 3 MPH (3 KT):0
Visibility: 10 mile(s):0
Sky conditions: overcast
Temperature: 71.8 F (22.1 C)
Dew Point: 66.6 F (19.2 C)
Relative Humidity: 83%
Pressure (altimeter): 30.06 in. Hg (1017 hPa)
ob: KFFA 242300Z AUTO 01003KT 10SM OVC050 22/19 A3006 RMK AO2 T02210192
cycle: 23

Station Type Date Time Source
KFFA TAF UTC NOAA

Error!

Example: see airport list